| Date | Time | Temp. (oF) | Dew Point (oF) | Rel. Hum. (%) | Press. (in.) | Wind Dir. | Wind Speed (mph) | Hourly Rainfall (in.) |
|
|---|---|---|---|---|---|---|---|---|---|
| 1 | 11/21 | 00:00 | 39 | 35 | 87 | 30.12 | WNW | 2 | 0.00 |
| 2 | 11/20 | 23:00 | 41 | 36 | 84 | 30.12 | WNW | 1 | 0.00 |
| 3 | 11/20 | 22:00 | 40 | 36 | 87 | 30.13 | W | 2 | 0.00 |
| 4 | 11/20 | 21:00 | 42 | 36 | 80 | 30.13 | SW | 1 | 0.00 |
| 5 | 11/20 | 20:00 | 45 | 36 | 73 | 30.12 | WSW | 2 | 0.00 |
| 6 | 11/20 | 19:00 | 47 | 36 | 68 | 30.11 | SW | 2 | 0.00 |
| 7 | 11/20 | 18:00 | 49 | 36 | 62 | 30.08 | NNW | 3 | 0.00 |
| 8 | 11/20 | 17:00 | 52 | 37 | 58 | 30.07 | NW | 7 | 0.00 |
| 9 | 11/20 | 16:00 | 54 | 37 | 54 | 30.05 | NNW | 7 | 0.00 |
| 10 | 11/20 | 15:00 | 56 | 39 | 53 | 30.05 | SSW | 5 | 0.00 |
| 11 | 11/20 | 14:00 | 56 | 40 | 56 | 30.05 | WNW | 12 | 0.00 |
| 12 | 11/20 | 13:00 | 55 | 41 | 61 | 30.07 | W | 13 | 0.00 |
| 13 | 11/20 | 12:00 | 54 | 41 | 62 | 30.09 | WNW | 12 | 0.00 |
| 14 | 11/20 | 11:00 | 54 | 42 | 64 | 30.10 | NW | 5 | 0.00 |
| 15 | 11/20 | 10:00 | 52 | 42 | 71 | 30.11 | WNW | 12 | 0.00 |
| 16 | 11/20 | 09:00 | 51 | 45 | 80 | 30.09 | NW | 5 | 0.00 |
| 17 | 11/20 | 08:00 | 48 | 44 | 89 | 30.09 | W | 4 | 0.00 |
| 18 | 11/20 | 07:00 | 47 | 45 | 94 | 30.08 | WNW | 2 | 0.00 |
| 19 | 11/20 | 06:00 | 49 | 46 | 92 | 30.07 | WNW | 1 | 0.00 |
| 20 | 11/20 | 05:00 | 51 | 49 | 96 | 30.05 | NW | 10 | 0.00 |
| 21 | 11/20 | 04:00 | 53 | 52 | 99 | 30.04 | NW | 2 | 0.00 |
| 22 | 11/20 | 03:00 | 54 | 54 | 100 | 30.02 | W | 2 | 0.01 |
| 23 | 11/20 | 02:00 | 55 | 54 | 100 | 30.01 | W | 4 | 0.09 |
| 24 | 11/20 | 01:00 | 56 | 55 | 100 | 30.02 | WNW | 5 | 0.26 |